createdAt,value
2023-04-13T00:00:35.258Z,93160.91
2023-04-13T00:03:02.356Z,93163.50
2023-04-13T00:05:29.070Z,93172.31
2023-04-13T00:07:56.190Z,93166.66
2023-04-13T00:10:23.978Z,93168.28
2023-04-13T00:12:50.642Z,93166.00
2023-04-13T00:15:21.442Z,93181.34
2023-04-13T00:17:48.095Z,93175.69
2023-04-13T00:20:14.804Z,93175.97
2023-04-13T00:22:43.088Z,93175.22
2023-04-13T00:25:11.761Z,93168.31
2023-04-13T00:27:42.453Z,93186.72
2023-04-13T00:30:11.456Z,93192.66
2023-04-13T00:32:40.742Z,93184.13
2023-04-13T00:35:08.541Z,93188.84
2023-04-13T00:37:35.279Z,93188.22
2023-04-13T00:40:02.212Z,93186.72
2023-04-13T00:42:28.756Z,93182.69
2023-04-13T00:44:55.399Z,93189.31
2023-04-13T00:47:32.204Z,93188.84
2023-04-13T00:50:01.269Z,93202.81
2023-04-13T00:52:29.009Z,93196.59
2023-04-13T00:54:57.694Z,93200.69
2023-04-13T00:57:25.349Z,93207.09
2023-04-13T00:59:52.769Z,93217.75
2023-04-13T01:02:26.451Z,93216.22
2023-04-13T01:04:55.734Z,93220.16
2023-04-13T01:07:41.385Z,93229.16
2023-04-13T01:10:32.394Z,93226.38
2023-04-13T01:13:14.163Z,93222.53
2023-04-13T01:16:10.448Z,93207.88
2023-04-13T01:18:41.762Z,93190.91
2023-04-13T01:21:14.540Z,93206.91
2023-04-13T01:24:08.678Z,93195.31
2023-04-13T01:26:43.848Z,93191.78
2023-04-13T01:29:10.674Z,93184.59
2023-04-13T01:31:37.822Z,93188.22
2023-04-13T01:34:04.846Z,93193.97
2023-04-13T01:36:33.624Z,93189.41
2023-04-13T01:39:00.911Z,93191.69
2023-04-13T01:41:29.949Z,93184.41
2023-04-13T01:43:56.944Z,93175.41
2023-04-13T01:46:30.957Z,93187.28
2023-04-13T01:49:19.563Z,93172.91
2023-04-13T01:52:08.358Z,93170.22
2023-04-13T01:54:37.308Z,93163.25
2023-04-13T01:57:04.324Z,93167.75
2023-04-13T01:59:33.430Z,93177.13
2023-04-13T02:02:00.031Z,93182.88
2023-04-13T02:04:26.591Z,93182.38
2023-04-13T02:06:53.275Z,93177.50
2023-04-13T02:09:28.295Z,93186.59
2023-04-13T02:11:55.352Z,93198.28
2023-04-13T02:14:22.295Z,93195.19
2023-04-13T02:16:49.171Z,93186.41
2023-04-13T02:19:15.868Z,93185.63
2023-04-13T02:21:42.294Z,93200.88
2023-04-13T02:24:09.123Z,93198.56
2023-04-13T02:26:37.572Z,93194.94
2023-04-13T02:29:04.083Z,93195.69
2023-04-13T02:31:31.726Z,93199.31
2023-04-13T02:33:58.603Z,93210.34
2023-04-13T02:36:25.387Z,93209.88
2023-04-13T02:38:56.299Z,93206.72
2023-04-13T02:41:28.530Z,93201.25
2023-04-13T02:43:56.811Z,93201.81
2023-04-13T02:46:25.807Z,93204.41
2023-04-13T02:48:58.233Z,93197.78
2023-04-13T02:51:27.956Z,93196.44
2023-04-13T02:53:57.749Z,93198.06
2023-04-13T02:56:25.387Z,93216.47
2023-04-13T02:58:55.156Z,93210.13
2023-04-13T03:01:24.969Z,93214.34
2023-04-13T03:03:53.001Z,93213.66
2023-04-13T03:06:24.151Z,93219.66
2023-04-13T03:08:55.215Z,93216.66
2023-04-13T03:11:23.575Z,93219.31
2023-04-13T03:14:13.078Z,93222.16
2023-04-13T03:16:40.292Z,93211.34
2023-04-13T03:19:07.370Z,93216.50
2023-04-13T03:21:36.073Z,93214.69
2023-04-13T03:24:08.658Z,93215.47
2023-04-13T03:26:36.483Z,93209.63
2023-04-13T03:29:06.984Z,93205.50
2023-04-13T03:31:38.938Z,93214.28
2023-04-13T03:34:06.354Z,93219.53
2023-04-13T03:36:32.838Z,93232.03
2023-04-13T03:39:00.870Z,93220.94
2023-04-13T03:41:32.639Z,93228.19
2023-04-13T03:43:59.268Z,93230.00
2023-04-13T03:46:27.238Z,93224.84
2023-04-13T03:48:56.729Z,93226.94
2023-04-13T03:51:27.757Z,93218.22
2023-04-13T03:53:54.994Z,93214.31
2023-04-13T03:56:24.688Z,93215.06
2023-04-13T03:58:51.464Z,93225.88
2023-04-13T04:01:23.438Z,93223.81
2023-04-13T04:03:50.881Z,93224.56
2023-04-13T04:06:18.122Z,93226.66
2023-04-13T04:08:51.961Z,93228.19
2023-04-13T04:11:41.397Z,93223.31
2023-04-13T04:14:09.596Z,93228.75
2023-04-13T04:16:37.432Z,93228.97
2023-04-13T04:19:09.853Z,93239.31
2023-04-13T04:21:36.314Z,93236.78
2023-04-13T04:24:08.777Z,93248.66
2023-04-13T04:26:38.110Z,93247.19
2023-04-13T04:29:07.052Z,93241.31
2023-04-13T04:31:37.544Z,93231.53
2023-04-13T04:34:10.898Z,93239.88
2023-04-13T04:36:41.735Z,93247.41
2023-04-13T04:39:09.859Z,93234.00
2023-04-13T04:41:44.724Z,93229.41
2023-04-13T04:44:11.684Z,93238.19
2023-04-13T04:46:41.629Z,93237.41
2023-04-13T04:49:11.815Z,93239.22
2023-04-13T04:51:39.177Z,93230.16
2023-04-13T04:54:07.299Z,93240.97
2023-04-13T04:56:33.905Z,93253.13
2023-04-13T04:59:00.691Z,93252.63
2023-04-13T05:01:38.844Z,93249.13
2023-04-13T05:04:10.325Z,93254.78
2023-04-13T05:06:41.135Z,93247.03
2023-04-13T05:09:09.905Z,93250.66
2023-04-13T05:11:39.493Z,93252.25
2023-04-13T05:14:08.730Z,93258.97
2023-04-13T05:16:36.189Z,93267.75
2023-04-13T05:19:12.550Z,93269.84
2023-04-13T05:21:53.724Z,93269.06
2023-04-13T05:24:21.653Z,93267.50
2023-04-13T05:26:48.991Z,93271.94
2023-04-13T05:29:21.128Z,93269.06
2023-04-13T05:31:48.513Z,93274.44
2023-04-13T05:34:16.466Z,93279.06
2023-04-13T05:36:55.611Z,93273.81
2023-04-13T05:39:22.079Z,93271.44
2023-04-13T05:41:48.537Z,93271.09
2023-04-13T05:44:16.310Z,93283.47
2023-04-13T05:46:42.890Z,93279.56
2023-04-13T05:49:10.590Z,93270.97
2023-04-13T05:51:38.211Z,93281.25
2023-04-13T05:54:04.926Z,93278.09
2023-04-13T05:56:34.147Z,93279.63
2023-04-13T05:59:01.125Z,93284.25
2023-04-13T06:01:29.594Z,93281.59
2023-04-13T06:03:56.543Z,93284.59
2023-04-13T06:06:24.852Z,93279.13
2023-04-13T06:08:52.971Z,93284.44
2023-04-13T06:11:20.851Z,93290.88
2023-04-13T06:13:47.257Z,93284.38
2023-04-13T06:16:13.715Z,93279.75
2023-04-13T06:18:40.279Z,93295.44
2023-04-13T06:21:07.078Z,93287.88
2023-04-13T06:23:34.233Z,93294.53
2023-04-13T06:26:06.058Z,93297.59
2023-04-13T06:28:45.010Z,93294.44
2023-04-13T06:31:13.666Z,93297.97
2023-04-13T06:33:41.560Z,93295.81
2023-04-13T06:36:09.243Z,93293.72
2023-04-13T06:38:36.290Z,93293.94
2023-04-13T06:41:07.434Z,93289.44
2023-04-13T06:43:37.682Z,93287.34
2023-04-13T06:46:15.930Z,93285.00
2023-04-13T06:48:46.558Z,93284.94
2023-04-13T06:51:14.696Z,93285.13
2023-04-13T06:53:42.079Z,93288.97
2023-04-13T06:56:08.694Z,93279.41
2023-04-13T06:58:36.645Z,93288.03
2023-04-13T07:01:04.341Z,93293.69
2023-04-13T07:03:34.060Z,93288.63
2023-04-13T07:06:02.572Z,93284.00
2023-04-13T07:08:29.230Z,93282.50
2023-04-13T07:10:55.762Z,93287.84
2023-04-13T07:13:30.529Z,93289.78
2023-04-13T07:15:57.023Z,93298.50
2023-04-13T07:18:23.535Z,93294.38
2023-04-13T07:20:49.954Z,93299.06
2023-04-13T07:23:19.309Z,93298.22
2023-04-13T07:25:45.874Z,93305.13
2023-04-13T07:28:20.745Z,93298.72
2023-04-13T07:30:50.507Z,93303.59
2023-04-13T07:33:17.315Z,93304.63
2023-04-13T07:35:44.065Z,93270.31
2023-04-13T07:38:12.062Z,93297.25
2023-04-13T07:40:38.686Z,93305.50
2023-04-13T07:43:10.206Z,93306.53
2023-04-13T07:45:39.510Z,93301.88
2023-04-13T07:48:06.994Z,93308.97
2023-04-13T07:50:42.552Z,93306.41
2023-04-13T07:53:12.732Z,93300.75
2023-04-13T07:55:40.562Z,93302.75
2023-04-13T07:58:07.820Z,93311.38
2023-04-13T08:00:34.309Z,93309.19
2023-04-13T08:03:03.715Z,93330.28
2023-04-13T08:05:32.063Z,93318.38
2023-04-13T08:07:58.590Z,93311.84
2023-04-13T08:10:25.144Z,93316.66
2023-04-13T08:12:53.675Z,93323.28
2023-04-13T08:15:21.594Z,93313.88
2023-04-13T08:17:48.971Z,93315.03
2023-04-13T08:20:17.361Z,93308.41
2023-04-13T08:22:45.886Z,93311.34
2023-04-13T08:25:12.296Z,93309.97
2023-04-13T08:27:38.756Z,93307.34
2023-04-13T08:30:07.459Z,93301.00
2023-04-13T08:32:44.064Z,93303.47
2023-04-13T08:35:11.635Z,93310.00
2023-04-13T08:37:39.828Z,93308.59
2023-04-13T08:40:11.867Z,93307.47
2023-04-13T08:42:39.837Z,93303.06
2023-04-13T08:45:07.619Z,93323.84
2023-04-13T08:47:34.696Z,93317.78
2023-04-13T08:50:02.830Z,93315.72
2023-04-13T08:52:42.521Z,93321.53
2023-04-13T08:55:09.266Z,93315.13
2023-04-13T08:57:38.392Z,93322.63
2023-04-13T09:00:12.616Z,93323.38
2023-04-13T09:02:49.322Z,93315.78
2023-04-13T09:05:28.651Z,93326.81
2023-04-13T09:08:04.199Z,93330.84
2023-04-13T09:10:30.865Z,93330.16
2023-04-13T09:12:57.374Z,93325.28
2023-04-13T09:15:24.381Z,93323.81
2023-04-13T09:18:17.249Z,93334.19
2023-04-13T09:20:59.863Z,93326.41
2023-04-13T09:23:26.609Z,93336.84
2023-04-13T09:26:04.818Z,93335.38
2023-04-13T09:28:31.492Z,93325.88
2023-04-13T09:31:05.442Z,93330.53
2023-04-13T09:33:47.088Z,93332.91
2023-04-13T09:36:15.408Z,93321.56
2023-04-13T09:38:50.458Z,93322.41
2023-04-13T09:41:16.972Z,93314.91
2023-04-13T09:43:43.408Z,93314.25
2023-04-13T09:46:14.149Z,93302.44
2023-04-13T09:48:58.822Z,93303.72
2023-04-13T09:51:27.452Z,93292.88
2023-04-13T09:53:54.528Z,93296.88
2023-04-13T09:56:21.204Z,93283.75
2023-04-13T09:58:47.841Z,93283.44
2023-04-13T10:01:17.224Z,93282.81
2023-04-13T10:03:44.479Z,93277.16
2023-04-13T10:06:11.042Z,93276.84
2023-04-13T10:08:39.186Z,93287.38
2023-04-13T10:11:13.265Z,93286.72
2023-04-13T10:13:50.962Z,93284.72
2023-04-13T10:16:36.501Z,93285.97
2023-04-13T10:19:17.879Z,93283.53
2023-04-13T10:21:47.731Z,93281.41
2023-04-13T10:24:15.285Z,93286.50
2023-04-13T10:26:44.059Z,93279.09
2023-04-13T10:29:13.379Z,93277.47
2023-04-13T10:31:41.961Z,93275.75
2023-04-13T10:34:09.713Z,93274.69
2023-04-13T10:36:44.212Z,93265.72
2023-04-13T10:39:11.253Z,93268.97
2023-04-13T10:41:38.513Z,93256.16
2023-04-13T10:44:07.758Z,93251.25
2023-04-13T10:46:35.641Z,93259.06
2023-04-13T10:49:03.724Z,93261.97
2023-04-13T10:51:43.420Z,93253.22
2023-04-13T10:54:12.387Z,93256.28
2023-04-13T10:56:40.080Z,93257.16
2023-04-13T10:59:07.002Z,93262.16
2023-04-13T11:01:35.715Z,93262.22
2023-04-13T11:04:06.475Z,93280.47
2023-04-13T11:06:39.338Z,93267.69
2023-04-13T11:09:07.066Z,93271.44
2023-04-13T11:11:36.545Z,93273.91
2023-04-13T11:14:03.670Z,93283.31
2023-04-13T11:16:30.217Z,93277.97
2023-04-13T11:19:04.091Z,93285.97
2023-04-13T11:21:31.756Z,93281.22
2023-04-13T11:24:02.224Z,93292.22
2023-04-13T11:26:38.223Z,93282.78
2023-04-13T11:29:05.140Z,93284.22
2023-04-13T11:31:41.920Z,93289.78
2023-04-13T11:34:11.022Z,93288.56
2023-04-13T11:36:40.383Z,93284.81
2023-04-13T11:39:10.867Z,93292.91
2023-04-13T11:41:41.556Z,93285.88
2023-04-13T11:44:08.045Z,93287.81
2023-04-13T11:46:34.573Z,93284.34
2023-04-13T11:49:01.765Z,93277.81
2023-04-13T11:51:28.735Z,93261.31
2023-04-13T11:53:55.408Z,93271.09
2023-04-13T11:56:22.099Z,93273.88
2023-04-13T11:58:51.430Z,93279.25
2023-04-13T12:01:25.023Z,93270.38
2023-04-13T12:04:01.472Z,93272.66
2023-04-13T12:06:35.297Z,93266.38
2023-04-13T12:09:10.092Z,93263.47
2023-04-13T12:11:48.599Z,93259.19
2023-04-13T12:14:45.968Z,93270.22
2023-04-13T12:19:46.234Z,93257.94
2023-04-13T12:22:14.660Z,93263.47
2023-04-13T12:24:42.788Z,93259.19
2023-04-13T12:27:18.558Z,93262.25
2023-04-13T12:29:45.905Z,93261.47
2023-04-13T12:32:17.089Z,93253.06
2023-04-13T12:34:44.721Z,93253.69
2023-04-13T12:37:11.659Z,93252.63
2023-04-13T12:39:38.223Z,93249.56
2023-04-13T12:42:05.242Z,93248.81
2023-04-13T12:44:33.750Z,93249.97
2023-04-13T12:47:01.076Z,93252.25
2023-04-13T12:49:27.638Z,93253.56
2023-04-13T12:51:54.080Z,93245.28
2023-04-13T12:54:20.667Z,93254.53
2023-04-13T12:56:47.564Z,93252.03
2023-04-13T12:59:14.075Z,93254.00
2023-04-13T13:01:40.770Z,93255.38
2023-04-13T13:04:07.422Z,93256.00
2023-04-13T13:06:34.271Z,93247.88
2023-04-13T13:09:01.233Z,93256.00
2023-04-13T13:11:28.258Z,93254.91
2023-04-13T13:13:54.895Z,93246.13
2023-04-13T13:16:21.388Z,93253.50
2023-04-13T13:18:51.340Z,93256.88
2023-04-13T13:21:18.692Z,93263.81
2023-04-13T13:23:45.550Z,93261.91
2023-04-13T13:28:42.372Z,93258.63
2023-04-13T13:31:09.078Z,93265.56
2023-04-13T13:33:36.283Z,93259.47
2023-04-13T13:36:02.736Z,93263.94
2023-04-13T13:38:29.278Z,93256.63
2023-04-13T13:40:56.031Z,93257.69
2023-04-13T13:43:22.570Z,93266.22
2023-04-13T13:45:49.070Z,93261.47
2023-04-13T13:48:16.592Z,93262.25
2023-04-13T13:50:50.887Z,93272.03
2023-04-13T13:53:17.904Z,93282.16
2023-04-13T13:55:45.110Z,93282.56
2023-04-13T13:58:11.604Z,93289.88
2023-04-13T14:00:38.217Z,93291.97
2023-04-13T14:03:04.696Z,93299.25
2023-04-13T14:05:31.974Z,93301.31
2023-04-13T14:07:58.435Z,93300.13
2023-04-13T14:10:25.152Z,93290.06
2023-04-13T14:12:52.667Z,93294.53
2023-04-13T14:15:19.476Z,93301.47
2023-04-13T14:17:55.417Z,93296.84
2023-04-13T14:20:28.824Z,93291.16
2023-04-13T14:22:56.881Z,93291.00
2023-04-13T14:25:23.579Z,93287.50
2023-04-13T14:27:50.356Z,93294.41
2023-04-13T14:30:19.432Z,93305.53
2023-04-13T14:32:49.384Z,93307.31
2023-04-13T14:35:16.167Z,93295.03
2023-04-13T14:37:42.634Z,93291.97
2023-04-13T14:40:14.379Z,93274.41
2023-04-13T14:42:41.150Z,93287.31
2023-04-13T14:45:11.173Z,93291.66
2023-04-13T14:47:38.783Z,93292.94
2023-04-13T14:50:05.993Z,93302.84
2023-04-13T14:52:32.409Z,93287.97
2023-04-13T14:54:58.834Z,93293.88
2023-04-13T14:57:26.968Z,93296.00
2023-04-13T14:59:55.684Z,93296.97
2023-04-13T15:02:23.045Z,93301.66
2023-04-13T15:04:49.649Z,93296.97
2023-04-13T15:07:16.229Z,93300.00
2023-04-13T15:09:42.607Z,93304.63
2023-04-13T15:12:12.657Z,93298.34
2023-04-13T15:14:40.570Z,93300.53
2023-04-13T15:17:08.333Z,93302.75
2023-04-13T15:19:34.773Z,93296.66
2023-04-13T15:22:01.181Z,93298.19
2023-04-13T15:24:27.623Z,93289.56
2023-04-13T15:26:54.220Z,93287.00
2023-04-13T15:29:21.019Z,93290.25
2023-04-13T15:31:47.545Z,93286.00
2023-04-13T15:34:14.030Z,93290.59
2023-04-13T15:36:40.479Z,93289.09
2023-04-13T15:39:06.898Z,93290.94
2023-04-13T15:41:33.318Z,93290.31
2023-04-13T15:44:00.327Z,93300.59
2023-04-13T15:46:27.575Z,93298.94
2023-04-13T15:48:54.834Z,93308.53
2023-04-13T15:51:21.938Z,93323.84
2023-04-13T15:53:48.598Z,93314.69
2023-04-13T15:56:15.065Z,93313.66
2023-04-13T15:58:41.704Z,93308.34
2023-04-13T16:01:10.071Z,93313.56
2023-04-13T16:03:36.990Z,93318.66
2023-04-13T16:06:03.746Z,93324.13
2023-04-13T16:08:30.206Z,93324.72
2023-04-13T16:10:56.979Z,93327.28
2023-04-13T16:13:23.525Z,93326.75
2023-04-13T16:15:55.579Z,93323.53
2023-04-13T16:18:32.233Z,93332.72
2023-04-13T16:21:02.238Z,93322.53
2023-04-13T16:23:29.316Z,93315.53
2023-04-13T16:25:55.911Z,93317.13
2023-04-13T16:28:22.395Z,93332.50
2023-04-13T16:30:49.408Z,93332.72
2023-04-13T16:33:15.998Z,93337.03
2023-04-13T16:35:42.466Z,93333.53
2023-04-13T16:38:08.902Z,93340.09
2023-04-13T16:40:35.893Z,93349.88
2023-04-13T16:43:04.060Z,93351.22
2023-04-13T16:45:30.542Z,93353.63
2023-04-13T16:47:56.994Z,93355.41
2023-04-13T16:50:28.475Z,93354.56
2023-04-13T16:52:56.495Z,93362.56
2023-04-13T16:55:23.054Z,93364.34
2023-04-13T16:57:50.683Z,93368.13
2023-04-13T17:00:18.040Z,93357.13
2023-04-13T17:02:44.679Z,93355.44
2023-04-13T17:05:12.443Z,93355.06
2023-04-13T17:07:40.472Z,93349.31
2023-04-13T17:10:07.754Z,93356.25
2023-04-13T17:12:34.899Z,93358.75
2023-04-13T17:15:01.320Z,93367.22
2023-04-13T17:17:28.453Z,93368.38
2023-04-13T17:19:54.988Z,93369.53
2023-04-13T17:22:22.388Z,93371.47
2023-04-13T17:24:49.374Z,93374.28
2023-04-13T17:27:16.465Z,93380.03
2023-04-13T17:29:42.924Z,93377.44
2023-04-13T17:32:09.518Z,93384.28
2023-04-13T17:34:36.003Z,93387.91
2023-04-13T17:37:02.402Z,93382.28
2023-04-13T17:39:29.169Z,93377.94
2023-04-13T17:41:56.239Z,93379.84
2023-04-13T17:44:22.676Z,93389.28
2023-04-13T17:46:50.196Z,93388.50
2023-04-13T17:49:16.643Z,93386.22
2023-04-13T17:51:49.799Z,93391.09
2023-04-13T17:54:16.279Z,93393.97
2023-04-13T17:56:42.870Z,93391.38
2023-04-13T17:59:13.127Z,93411.34
2023-04-13T18:01:42.048Z,93405.69
2023-04-13T18:04:13.418Z,93409.63
2023-04-13T18:06:40.345Z,93408.84
2023-04-13T18:09:08.805Z,93409.69
2023-04-13T18:11:35.654Z,93413.16
2023-04-13T18:14:02.991Z,93413.25
2023-04-13T18:16:31.703Z,93406.03
2023-04-13T18:19:01.674Z,93409.50
2023-04-13T18:21:28.078Z,93410.16
2023-04-13T18:23:54.531Z,93415.41
2023-04-13T18:26:22.535Z,93413.19
2023-04-13T18:28:49.062Z,93415.59
2023-04-13T18:31:15.600Z,93407.13
2023-04-13T18:33:42.002Z,93413.09
2023-04-13T18:36:08.382Z,93409.25
2023-04-13T18:38:35.011Z,93405.59
2023-04-13T18:41:01.617Z,93409.25
2023-04-13T18:43:28.020Z,93412.59
2023-04-13T18:45:54.464Z,93408.47
2023-04-13T18:48:20.949Z,93399.25
2023-04-13T18:50:48.269Z,93407.50
2023-04-13T18:53:14.757Z,93415.84
2023-04-13T18:55:41.172Z,93421.59
2023-04-13T18:58:07.713Z,93423.19
2023-04-13T19:00:34.144Z,93431.72
2023-04-13T19:03:00.672Z,93427.59
2023-04-13T19:05:27.766Z,93422.41
2023-04-13T19:07:58.501Z,93419.13
2023-04-13T19:10:26.498Z,93435.63
2023-04-13T19:12:52.941Z,93431.50
2023-04-13T19:15:19.903Z,93437.75
2023-04-13T19:17:47.244Z,93432.38
2023-04-13T19:20:14.394Z,93433.63
2023-04-13T19:22:40.899Z,93433.63
2023-04-13T19:25:13.951Z,93428.66
2023-04-13T19:27:45.496Z,93435.63
2023-04-13T19:30:13.686Z,93438.72
2023-04-13T19:32:41.937Z,93441.28
2023-04-13T19:35:10.093Z,93436.97
2023-04-13T19:37:37.915Z,93432.16
2023-04-13T19:40:09.662Z,93439.44
2023-04-13T19:42:37.059Z,93436.63
2023-04-13T19:45:04.253Z,93435.59
2023-04-13T19:47:32.024Z,93440.00
2023-04-13T19:49:58.530Z,93432.22
2023-04-13T19:52:25.270Z,93436.38
2023-04-13T19:54:51.987Z,93437.41
2023-04-13T19:57:18.687Z,93442.66
2023-04-13T19:59:45.236Z,93434.41
2023-04-13T20:02:11.709Z,93436.56
2023-04-13T20:04:38.622Z,93436.88
2023-04-13T20:07:05.608Z,93440.28
2023-04-13T20:09:33.206Z,93431.56
2023-04-13T20:11:59.632Z,93430.06
2023-04-13T20:14:26.356Z,93436.59
2023-04-13T20:16:52.936Z,93430.16
2023-04-13T20:19:20.227Z,93429.66
2023-04-13T20:21:46.768Z,93431.75
2023-04-13T20:24:13.249Z,93435.94
2023-04-13T20:26:40.038Z,93433.44
2023-04-13T20:29:06.698Z,93431.88
2023-04-13T20:31:33.333Z,93426.31
2023-04-13T20:34:00.316Z,93438.16
2023-04-13T20:36:27.169Z,93430.19
2023-04-13T20:38:54.982Z,93430.06
2023-04-13T20:41:21.882Z,93430.59
2023-04-13T20:43:50.634Z,93436.31
2023-04-13T20:46:17.129Z,93430.13
2023-04-13T20:51:13.287Z,93424.50
2023-04-13T20:53:39.709Z,93419.31
2023-04-13T20:56:09.214Z,93413.59
2023-04-13T20:58:37.318Z,93405.84
2023-04-13T21:01:04.602Z,93395.03
2023-04-13T21:03:32.003Z,93390.91
2023-04-13T21:05:59.370Z,93399.69
2023-04-13T21:08:27.266Z,93404.84
2023-04-13T21:10:53.693Z,93389.66
2023-04-13T21:13:20.295Z,93384.25
2023-04-13T21:15:46.958Z,93385.38
2023-04-13T21:18:13.423Z,93396.22
2023-04-13T21:20:42.053Z,93415.06
2023-04-13T21:23:08.505Z,93410.94
2023-04-13T21:25:36.356Z,93412.47
2023-04-13T21:28:03.110Z,93412.75
2023-04-13T21:30:29.631Z,93419.72
2023-04-13T21:32:56.136Z,93424.09
2023-04-13T21:35:22.653Z,93418.94
2023-04-13T21:37:49.042Z,93411.78
2023-04-13T21:40:16.295Z,93407.63
2023-04-13T21:42:42.710Z,93410.47
2023-04-13T21:45:09.504Z,93408.19
2023-04-13T21:47:35.985Z,93380.16
2023-04-13T21:50:02.397Z,93380.41
2023-04-13T21:52:29.013Z,93377.59
2023-04-13T21:54:55.827Z,93387.66
2023-04-13T21:57:22.270Z,93391.50
2023-04-13T21:59:48.671Z,93398.47
2023-04-13T22:02:15.846Z,93408.31
2023-04-13T22:04:42.326Z,93415.00
2023-04-13T22:07:08.794Z,93403.16
2023-04-13T22:09:35.707Z,93400.56
2023-04-13T22:12:02.211Z,93407.47
2023-04-13T22:14:28.694Z,93404.13
2023-04-13T22:16:56.151Z,93403.34
2023-04-13T22:19:22.619Z,93398.97
2023-04-13T22:21:49.019Z,93396.38
2023-04-13T22:24:16.055Z,93390.19
2023-04-13T22:26:42.534Z,93383.47
2023-04-13T22:29:09.036Z,93384.78
2023-04-13T22:31:35.788Z,93382.50
2023-04-13T22:34:02.224Z,93382.28
2023-04-13T22:36:28.666Z,93385.13
2023-04-13T22:38:55.325Z,93383.59
2023-04-13T22:41:21.880Z,93381.22
2023-04-13T22:43:48.274Z,93376.34
2023-04-13T22:46:14.903Z,93368.66
2023-04-13T22:48:41.361Z,93369.19
2023-04-13T22:51:07.822Z,93374.34
2023-04-13T22:53:34.250Z,93376.22
2023-04-13T22:56:01.013Z,93387.88
2023-04-13T22:58:27.777Z,93404.38
2023-04-13T23:00:54.343Z,93408.03
2023-04-13T23:03:21.428Z,93411.09
2023-04-13T23:05:48.131Z,93411.88
2023-04-13T23:08:14.563Z,93418.31
2023-04-13T23:10:41.114Z,93417.75
2023-04-13T23:13:07.676Z,93415.72
2023-04-13T23:15:34.267Z,93413.91
2023-04-13T23:18:02.517Z,93413.63
2023-04-13T23:20:29.385Z,93408.94
2023-04-13T23:22:55.878Z,93406.88
2023-04-13T23:25:22.337Z,93395.00
2023-04-13T23:27:48.727Z,93401.66
2023-04-13T23:30:16.092Z,93405.78
2023-04-13T23:32:42.537Z,93399.09
2023-04-13T23:35:09.169Z,93399.84
2023-04-13T23:37:35.577Z,93398.03
2023-04-13T23:40:02.059Z,93395.47
2023-04-13T23:42:28.588Z,93394.94
2023-04-13T23:44:55.306Z,93394.41
2023-04-13T23:47:22.240Z,93391.56
2023-04-13T23:49:48.807Z,93387.91
2023-04-13T23:52:15.219Z,93395.13
2023-04-13T23:54:41.673Z,93384.00
2023-04-13T23:57:09.676Z,93375.28
2023-04-13T23:59:36.091Z,93387.44
